sensor_id;sensor_type;location;lat;lon;timestamp;P1;durP1;ratioP1;P2;durP2;ratioP2
66761;SDS011;53672;48.176;16.338;2023-06-22T00:01:25;15.50;;;4.93;;
66761;SDS011;53672;48.176;16.338;2023-06-22T00:06:27;14.13;;;5.10;;
66761;SDS011;53672;48.176;16.338;2023-06-22T00:11:28;13.40;;;4.93;;
66761;SDS011;53672;48.176;16.338;2023-06-22T00:16:28;10.88;;;4.38;;
66761;SDS011;53672;48.176;16.338;2023-06-22T00:21:30;12.67;;;4.40;;
66761;SDS011;53672;48.176;16.338;2023-06-22T00:26:31;10.83;;;4.20;;
66761;SDS011;53672;48.176;16.338;2023-06-22T00:31:31;12.20;;;4.13;;
66761;SDS011;53672;48.176;16.338;2023-06-22T00:36:33;12.02;;;4.50;;
66761;SDS011;53672;48.176;16.338;2023-06-22T00:41:33;9.07;;;4.10;;
66761;SDS011;53672;48.176;16.338;2023-06-22T00:46:34;13.07;;;4.03;;
66761;SDS011;53672;48.176;16.338;2023-06-22T00:51:36;11.00;;;4.57;;
66761;SDS011;53672;48.176;16.338;2023-06-22T00:56:38;9.35;;;4.18;;
66761;SDS011;53672;48.176;16.338;2023-06-22T01:01:38;11.03;;;4.37;;
66761;SDS011;53672;48.176;16.338;2023-06-22T01:06:43;10.63;;;4.40;;
66761;SDS011;53672;48.176;16.338;2023-06-22T01:11:51;9.35;;;4.10;;
66761;SDS011;53672;48.176;16.338;2023-06-22T01:16:54;9.23;;;4.10;;
66761;SDS011;53672;48.176;16.338;2023-06-22T01:21:58;10.27;;;4.33;;
66761;SDS011;53672;48.176;16.338;2023-06-22T01:27:05;12.15;;;4.47;;
66761;SDS011;53672;48.176;16.338;2023-06-22T01:32:14;13.27;;;4.75;;
66761;SDS011;53672;48.176;16.338;2023-06-22T01:37:16;9.68;;;3.97;;
66761;SDS011;53672;48.176;16.338;2023-06-22T01:42:17;11.70;;;4.47;;
66761;SDS011;53672;48.176;16.338;2023-06-22T01:47:19;12.02;;;4.20;;
66761;SDS011;53672;48.176;16.338;2023-06-22T01:52:20;8.33;;;4.30;;
66761;SDS011;53672;48.176;16.338;2023-06-22T01:57:20;11.17;;;4.30;;
66761;SDS011;53672;48.176;16.338;2023-06-22T02:02:22;8.43;;;4.07;;
66761;SDS011;53672;48.176;16.338;2023-06-22T02:07:26;11.35;;;4.55;;
66761;SDS011;53672;48.176;16.338;2023-06-22T02:12:31;11.57;;;4.47;;
66761;SDS011;53672;48.176;16.338;2023-06-22T02:17:35;10.97;;;4.40;;
66761;SDS011;53672;48.176;16.338;2023-06-22T02:22:36;9.23;;;4.13;;
66761;SDS011;53672;48.176;16.338;2023-06-22T02:27:37;9.87;;;4.70;;
66761;SDS011;53672;48.176;16.338;2023-06-22T02:32:38;10.60;;;4.37;;
66761;SDS011;53672;48.176;16.338;2023-06-22T02:37:39;8.98;;;4.20;;
66761;SDS011;53672;48.176;16.338;2023-06-22T02:42:40;13.83;;;4.50;;
66761;SDS011;53672;48.176;16.338;2023-06-22T02:47:42;11.63;;;4.70;;
66761;SDS011;53672;48.176;16.338;2023-06-22T02:52:43;12.43;;;4.63;;
66761;SDS011;53672;48.176;16.338;2023-06-22T02:57:44;11.67;;;4.63;;
66761;SDS011;53672;48.176;16.338;2023-06-22T03:02:46;10.30;;;4.00;;
66761;SDS011;53672;48.176;16.338;2023-06-22T03:07:47;8.88;;;4.20;;
66761;SDS011;53672;48.176;16.338;2023-06-22T03:12:48;11.87;;;4.63;;
66761;SDS011;53672;48.176;16.338;2023-06-22T03:17:49;10.83;;;4.77;;
66761;SDS011;53672;48.176;16.338;2023-06-22T03:22:50;9.88;;;4.13;;
66761;SDS011;53672;48.176;16.338;2023-06-22T03:27:50;13.17;;;4.80;;
66761;SDS011;53672;48.176;16.338;2023-06-22T03:32:52;11.03;;;4.33;;
66761;SDS011;53672;48.176;16.338;2023-06-22T03:37:53;10.05;;;4.38;;
66761;SDS011;53672;48.176;16.338;2023-06-22T03:42:53;9.93;;;4.63;;
66761;SDS011;53672;48.176;16.338;2023-06-22T03:47:55;10.23;;;4.70;;
66761;SDS011;53672;48.176;16.338;2023-06-22T03:52:55;10.48;;;4.60;;
66761;SDS011;53672;48.176;16.338;2023-06-22T03:57:56;10.43;;;4.65;;
66761;SDS011;53672;48.176;16.338;2023-06-22T04:02:58;13.07;;;4.60;;
66761;SDS011;53672;48.176;16.338;2023-06-22T04:07:58;13.33;;;4.67;;
66761;SDS011;53672;48.176;16.338;2023-06-22T04:12:59;11.77;;;4.60;;
66761;SDS011;53672;48.176;16.338;2023-06-22T04:18:01;9.30;;;4.45;;
66761;SDS011;53672;48.176;16.338;2023-06-22T04:23:01;12.53;;;4.90;;
66761;SDS011;53672;48.176;16.338;2023-06-22T04:28:02;10.90;;;4.63;;
66761;SDS011;53672;48.176;16.338;2023-06-22T04:33:04;11.63;;;4.88;;
66761;SDS011;53672;48.176;16.338;2023-06-22T04:38:04;9.50;;;4.53;;
66761;SDS011;53672;48.176;16.338;2023-06-22T04:43:05;10.15;;;4.55;;
66761;SDS011;53672;48.176;16.338;2023-06-22T04:48:07;10.85;;;4.70;;
66761;SDS011;53672;48.176;16.338;2023-06-22T04:53:07;9.67;;;4.50;;
66761;SDS011;53672;48.176;16.338;2023-06-22T04:58:08;11.30;;;4.80;;
66761;SDS011;53672;48.176;16.338;2023-06-22T05:03:10;10.83;;;4.90;;
66761;SDS011;53672;48.176;16.338;2023-06-22T05:08:11;12.10;;;4.57;;
66761;SDS011;53672;48.176;16.338;2023-06-22T05:13:13;12.20;;;4.97;;
66761;SDS011;53672;48.176;16.338;2023-06-22T05:18:15;13.93;;;4.80;;
66761;SDS011;53672;48.176;16.338;2023-06-22T05:23:15;11.70;;;4.60;;
66761;SDS011;53672;48.176;16.338;2023-06-22T05:28:15;10.70;;;4.73;;
66761;SDS011;53672;48.176;16.338;2023-06-22T05:33:17;13.10;;;4.60;;
66761;SDS011;53672;48.176;16.338;2023-06-22T05:38:18;12.97;;;4.37;;
66761;SDS011;53672;48.176;16.338;2023-06-22T05:43:18;9.65;;;4.15;;
66761;SDS011;53672;48.176;16.338;2023-06-22T05:48:20;9.93;;;4.30;;
66761;SDS011;53672;48.176;16.338;2023-06-22T05:53:21;12.97;;;4.03;;
66761;SDS011;53672;48.176;16.338;2023-06-22T05:58:21;11.30;;;4.33;;
66761;SDS011;53672;48.176;16.338;2023-06-22T06:03:23;11.50;;;5.28;;
66761;SDS011;53672;48.176;16.338;2023-06-22T06:08:23;11.27;;;4.65;;
66761;SDS011;53672;48.176;16.338;2023-06-22T06:13:24;11.20;;;5.10;;
66761;SDS011;53672;48.176;16.338;2023-06-22T06:18:26;14.53;;;5.57;;
66761;SDS011;53672;48.176;16.338;2023-06-22T06:23:26;15.35;;;6.18;;
66761;SDS011;53672;48.176;16.338;2023-06-22T06:28:27;13.80;;;6.00;;
66761;SDS011;53672;48.176;16.338;2023-06-22T06:33:28;18.97;;;6.90;;
66761;SDS011;53672;48.176;16.338;2023-06-22T06:38:29;14.77;;;5.85;;
66761;SDS011;53672;48.176;16.338;2023-06-22T06:43:29;16.67;;;6.83;;
66761;SDS011;53672;48.176;16.338;2023-06-22T06:48:31;16.63;;;7.03;;
66761;SDS011;53672;48.176;16.338;2023-06-22T06:53:32;14.20;;;6.57;;
66761;SDS011;53672;48.176;16.338;2023-06-22T06:58:32;17.48;;;8.00;;
66761;SDS011;53672;48.176;16.338;2023-06-22T07:03:34;14.03;;;7.23;;
66761;SDS011;53672;48.176;16.338;2023-06-22T07:08:34;21.23;;;9.63;;
66761;SDS011;53672;48.176;16.338;2023-06-22T07:13:35;19.47;;;11.70;;
66761;SDS011;53672;48.176;16.338;2023-06-22T07:18:37;24.53;;;12.23;;
66761;SDS011;53672;48.176;16.338;2023-06-22T07:23:39;22.50;;;11.65;;
66761;SDS011;53672;48.176;16.338;2023-06-22T07:28:39;24.43;;;10.77;;
66761;SDS011;53672;48.176;16.338;2023-06-22T07:33:41;19.97;;;11.07;;
66761;SDS011;53672;48.176;16.338;2023-06-22T07:38:42;23.65;;;11.73;;
66761;SDS011;53672;48.176;16.338;2023-06-22T07:43:42;24.43;;;11.67;;
66761;SDS011;53672;48.176;16.338;2023-06-22T07:48:44;23.37;;;11.00;;
66761;SDS011;53672;48.176;16.338;2023-06-22T07:53:45;18.50;;;10.73;;
66761;SDS011;53672;48.176;16.338;2023-06-22T07:58:45;25.07;;;11.43;;
66761;SDS011;53672;48.176;16.338;2023-06-22T08:03:48;22.10;;;11.47;;
66761;SDS011;53672;48.176;16.338;2023-06-22T08:08:48;23.02;;;9.90;;
66761;SDS011;53672;48.176;16.338;2023-06-22T08:13:49;18.70;;;10.63;;
66761;SDS011;53672;48.176;16.338;2023-06-22T08:18:51;18.03;;;10.73;;
66761;SDS011;53672;48.176;16.338;2023-06-22T08:23:51;20.35;;;10.52;;
66761;SDS011;53672;48.176;16.338;2023-06-22T08:28:52;18.53;;;9.83;;
66761;SDS011;53672;48.176;16.338;2023-06-22T08:33:53;20.73;;;10.70;;
66761;SDS011;53672;48.176;16.338;2023-06-22T08:38:54;18.02;;;10.13;;
66761;SDS011;53672;48.176;16.338;2023-06-22T08:43:54;17.25;;;8.80;;
66761;SDS011;53672;48.176;16.338;2023-06-22T08:48:56;16.87;;;9.30;;
66761;SDS011;53672;48.176;16.338;2023-06-22T08:53:57;15.17;;;8.90;;
66761;SDS011;53672;48.176;16.338;2023-06-22T08:58:58;15.50;;;8.93;;
66761;SDS011;53672;48.176;16.338;2023-06-22T09:03:59;20.38;;;8.70;;
66761;SDS011;53672;48.176;16.338;2023-06-22T09:09:00;13.82;;;8.52;;
66761;SDS011;53672;48.176;16.338;2023-06-22T09:14:01;16.67;;;8.27;;
66761;SDS011;53672;48.176;16.338;2023-06-22T09:19:03;15.73;;;8.20;;
66761;SDS011;53672;48.176;16.338;2023-06-22T09:24:03;16.13;;;9.00;;
66761;SDS011;53672;48.176;16.338;2023-06-22T09:29:04;15.48;;;9.32;;
66761;SDS011;53672;48.176;16.338;2023-06-22T09:34:06;18.97;;;9.47;;
66761;SDS011;53672;48.176;16.338;2023-06-22T09:39:07;16.30;;;9.20;;
66761;SDS011;53672;48.176;16.338;2023-06-22T09:44:07;15.30;;;9.33;;
66761;SDS011;53672;48.176;16.338;2023-06-22T09:49:09;18.75;;;9.00;;
66761;SDS011;53672;48.176;16.338;2023-06-22T09:54:09;17.20;;;8.93;;
66761;SDS011;53672;48.176;16.338;2023-06-22T09:59:10;14.43;;;8.37;;
66761;SDS011;53672;48.176;16.338;2023-06-22T10:04:12;13.43;;;9.40;;
66761;SDS011;53672;48.176;16.338;2023-06-22T10:09:12;16.08;;;9.20;;
66761;SDS011;53672;48.176;16.338;2023-06-22T10:14:13;13.00;;;8.80;;
66761;SDS011;53672;48.176;16.338;2023-06-22T10:19:14;15.03;;;8.87;;
66761;SDS011;53672;48.176;16.338;2023-06-22T10:24:15;13.93;;;8.30;;
66761;SDS011;53672;48.176;16.338;2023-06-22T10:29:15;10.47;;;7.00;;
66761;SDS011;53672;48.176;16.338;2023-06-22T10:34:17;12.47;;;6.33;;
66761;SDS011;53672;48.176;16.338;2023-06-22T10:39:18;10.48;;;6.00;;
66761;SDS011;53672;48.176;16.338;2023-06-22T10:44:18;13.30;;;6.93;;
66761;SDS011;53672;48.176;16.338;2023-06-22T10:49:20;11.77;;;6.20;;
66761;SDS011;53672;48.176;16.338;2023-06-22T10:54:21;10.70;;;5.82;;
66761;SDS011;53672;48.176;16.338;2023-06-22T10:59:21;11.40;;;6.10;;
66761;SDS011;53672;48.176;16.338;2023-06-22T11:04:23;7.67;;;5.97;;
66761;SDS011;53672;48.176;16.338;2023-06-22T11:09:24;8.77;;;6.67;;
66761;SDS011;53672;48.176;16.338;2023-06-22T11:14:25;13.37;;;7.97;;
66761;SDS011;53672;48.176;16.338;2023-06-22T11:19:26;13.47;;;8.23;;
66761;SDS011;53672;48.176;16.338;2023-06-22T11:24:27;12.43;;;8.60;;
66761;SDS011;53672;48.176;16.338;2023-06-22T11:29:27;13.03;;;8.10;;
66761;SDS011;53672;48.176;16.338;2023-06-22T11:34:29;12.20;;;8.20;;
66761;SDS011;53672;48.176;16.338;2023-06-22T11:39:30;12.73;;;8.50;;
66761;SDS011;53672;48.176;16.338;2023-06-22T11:44:30;15.47;;;8.17;;
66761;SDS011;53672;48.176;16.338;2023-06-22T11:49:32;11.07;;;6.70;;
66761;SDS011;53672;48.176;16.338;2023-06-22T11:54:32;11.05;;;6.78;;
66761;SDS011;53672;48.176;16.338;2023-06-22T11:59:33;11.32;;;7.00;;
66761;SDS011;53672;48.176;16.338;2023-06-22T12:04:35;12.97;;;6.87;;
66761;SDS011;53672;48.176;16.338;2023-06-22T12:09:35;12.48;;;6.57;;
66761;SDS011;53672;48.176;16.338;2023-06-22T12:14:36;11.25;;;6.25;;
66761;SDS011;53672;48.176;16.338;2023-06-22T12:19:38;10.50;;;6.10;;
66761;SDS011;53672;48.176;16.338;2023-06-22T12:24:39;12.77;;;6.18;;
66761;SDS011;53672;48.176;16.338;2023-06-22T12:29:39;12.03;;;6.40;;
66761;SDS011;53672;48.176;16.338;2023-06-22T12:34:41;11.97;;;6.30;;
66761;SDS011;53672;48.176;16.338;2023-06-22T12:39:43;11.30;;;6.70;;
66761;SDS011;53672;48.176;16.338;2023-06-22T12:44:43;13.05;;;5.80;;
66761;SDS011;53672;48.176;16.338;2023-06-22T12:49:45;11.90;;;5.77;;
66761;SDS011;53672;48.176;16.338;2023-06-22T12:54:46;12.82;;;5.90;;
66761;SDS011;53672;48.176;16.338;2023-06-22T12:59:46;13.23;;;5.90;;
66761;SDS011;53672;48.176;16.338;2023-06-22T13:04:48;11.57;;;6.00;;
66761;SDS011;53672;48.176;16.338;2023-06-22T13:09:48;11.00;;;6.20;;
66761;SDS011;53672;48.176;16.338;2023-06-22T13:14:49;11.73;;;6.20;;
66761;SDS011;53672;48.176;16.338;2023-06-22T13:19:51;16.15;;;5.90;;
66761;SDS011;53672;48.176;16.338;2023-06-22T13:24:51;12.53;;;5.70;;
66761;SDS011;53672;48.176;16.338;2023-06-22T13:29:52;12.40;;;6.27;;
66761;SDS011;53672;48.176;16.338;2023-06-22T13:34:54;12.97;;;6.17;;
66761;SDS011;53672;48.176;16.338;2023-06-22T13:39:54;13.63;;;6.00;;
66761;SDS011;53672;48.176;16.338;2023-06-22T13:44:55;11.13;;;5.70;;
66761;SDS011;53672;48.176;16.338;2023-06-22T13:49:57;13.17;;;6.10;;
66761;SDS011;53672;48.176;16.338;2023-06-22T13:54:57;13.05;;;5.93;;
66761;SDS011;53672;48.176;16.338;2023-06-22T13:59:58;11.33;;;6.10;;
66761;SDS011;53672;48.176;16.338;2023-06-22T14:04:59;12.67;;;6.00;;
66761;SDS011;53672;48.176;16.338;2023-06-22T14:10:00;13.15;;;6.13;;
66761;SDS011;53672;48.176;16.338;2023-06-22T14:15:01;13.37;;;6.60;;
66761;SDS011;53672;48.176;16.338;2023-06-22T14:20:03;17.20;;;6.67;;
66761;SDS011;53672;48.176;16.338;2023-06-22T14:25:04;15.18;;;6.40;;
66761;SDS011;53672;48.176;16.338;2023-06-22T14:30:06;12.03;;;6.37;;
66761;SDS011;53672;48.176;16.338;2023-06-22T14:35:08;15.35;;;6.50;;
66761;SDS011;53672;48.176;16.338;2023-06-22T14:40:09;14.05;;;6.10;;
66761;SDS011;53672;48.176;16.338;2023-06-22T14:45:12;13.63;;;5.80;;
66761;SDS011;53672;48.176;16.338;2023-06-22T14:50:14;15.82;;;6.40;;
66761;SDS011;53672;48.176;16.338;2023-06-22T14:55:14;15.47;;;6.37;;
66761;SDS011;53672;48.176;16.338;2023-06-22T15:00:15;12.93;;;6.20;;
66761;SDS011;53672;48.176;16.338;2023-06-22T15:05:18;13.23;;;6.70;;
66761;SDS011;53672;48.176;16.338;2023-06-22T15:10:19;12.65;;;6.50;;
66761;SDS011;53672;48.176;16.338;2023-06-22T15:15:19;16.27;;;6.77;;
66761;SDS011;53672;48.176;16.338;2023-06-22T15:20:21;10.17;;;6.67;;
66761;SDS011;53672;48.176;16.338;2023-06-22T15:25:21;13.35;;;7.43;;
66761;SDS011;53672;48.176;16.338;2023-06-22T15:30:22;28.95;;;7.28;;
66761;SDS011;53672;48.176;16.338;2023-06-22T15:35:24;14.67;;;6.77;;
66761;SDS011;53672;48.176;16.338;2023-06-22T15:40:24;16.10;;;6.80;;
66761;SDS011;53672;48.176;16.338;2023-06-22T15:45:25;14.52;;;6.93;;
66761;SDS011;53672;48.176;16.338;2023-06-22T15:50:27;14.20;;;7.28;;
66761;SDS011;53672;48.176;16.338;2023-06-22T15:55:27;15.47;;;7.03;;
66761;SDS011;53672;48.176;16.338;2023-06-22T16:00:28;13.87;;;7.30;;
66761;SDS011;53672;48.176;16.338;2023-06-22T16:05:30;14.93;;;7.70;;
66761;SDS011;53672;48.176;16.338;2023-06-22T16:10:30;15.73;;;7.20;;
66761;SDS011;53672;48.176;16.338;2023-06-22T16:15:30;14.27;;;7.27;;
66761;SDS011;53672;48.176;16.338;2023-06-22T16:20:32;17.73;;;7.87;;
66761;SDS011;53672;48.176;16.338;2023-06-22T16:25:33;12.82;;;7.78;;
66761;SDS011;53672;48.176;16.338;2023-06-22T16:30:33;13.43;;;7.73;;
66761;SDS011;53672;48.176;16.338;2023-06-22T16:35:36;14.33;;;8.23;;
66761;SDS011;53672;48.176;16.338;2023-06-22T16:40:36;14.85;;;8.00;;
66761;SDS011;53672;48.176;16.338;2023-06-22T16:45:37;13.53;;;7.50;;
66761;SDS011;53672;48.176;16.338;2023-06-22T16:50:38;14.43;;;7.60;;
66761;SDS011;53672;48.176;16.338;2023-06-22T16:55:39;15.52;;;8.20;;
66761;SDS011;53672;48.176;16.338;2023-06-22T17:00:41;15.10;;;8.07;;
66761;SDS011;53672;48.176;16.338;2023-06-22T17:05:43;15.37;;;8.60;;
66761;SDS011;53672;48.176;16.338;2023-06-22T17:10:44;13.73;;;7.88;;
66761;SDS011;53672;48.176;16.338;2023-06-22T17:15:44;16.40;;;8.13;;
66761;SDS011;53672;48.176;16.338;2023-06-22T17:20:49;15.52;;;8.90;;
66761;SDS011;53672;48.176;16.338;2023-06-22T17:25:49;13.77;;;8.03;;
66761;SDS011;53672;48.176;16.338;2023-06-22T17:31:05;14.77;;;8.40;;
66761;SDS011;53672;48.176;16.338;2023-06-22T17:36:13;14.38;;;8.40;;
66761;SDS011;53672;48.176;16.338;2023-06-22T17:41:13;15.20;;;8.50;;
66761;SDS011;53672;48.176;16.338;2023-06-22T17:46:14;20.80;;;9.10;;
66761;SDS011;53672;48.176;16.338;2023-06-22T17:51:16;14.90;;;8.20;;
66761;SDS011;53672;48.176;16.338;2023-06-22T17:56:18;13.07;;;8.50;;
66761;SDS011;53672;48.176;16.338;2023-06-22T18:01:27;17.17;;;8.50;;
66761;SDS011;53672;48.176;16.338;2023-06-22T18:06:30;16.13;;;8.25;;
66761;SDS011;53672;48.176;16.338;2023-06-22T18:11:33;17.40;;;8.77;;
66761;SDS011;53672;48.176;16.338;2023-06-22T18:16:35;15.00;;;8.50;;
66761;SDS011;53672;48.176;16.338;2023-06-22T18:21:36;16.50;;;9.20;;
66761;SDS011;53672;48.176;16.338;2023-06-22T18:26:37;15.00;;;9.15;;
66761;SDS011;53672;48.176;16.338;2023-06-22T18:31:38;16.53;;;9.50;;
66761;SDS011;53672;48.176;16.338;2023-06-22T18:36:41;16.05;;;8.82;;
66761;SDS011;53672;48.176;16.338;2023-06-22T18:41:48;16.07;;;8.57;;
66761;SDS011;53672;48.176;16.338;2023-06-22T18:46:51;17.17;;;9.80;;
66761;SDS011;53672;48.176;16.338;2023-06-22T18:51:54;21.73;;;10.32;;
66761;SDS011;53672;48.176;16.338;2023-06-22T18:56:56;13.25;;;9.25;;
66761;SDS011;53672;48.176;16.338;2023-06-22T19:01:59;16.52;;;10.48;;
66761;SDS011;53672;48.176;16.338;2023-06-22T19:07:01;16.93;;;10.07;;
66761;SDS011;53672;48.176;16.338;2023-06-22T19:12:18;18.70;;;10.05;;
66761;SDS011;53672;48.176;16.338;2023-06-22T19:17:19;20.13;;;9.88;;
66761;SDS011;53672;48.176;16.338;2023-06-22T19:22:24;18.23;;;9.57;;
66761;SDS011;53672;48.176;16.338;2023-06-22T19:27:43;17.27;;;9.13;;
66761;SDS011;53672;48.176;16.338;2023-06-22T19:32:45;17.10;;;9.30;;
66761;SDS011;53672;48.176;16.338;2023-06-22T19:37:48;16.33;;;9.03;;
66761;SDS011;53672;48.176;16.338;2023-06-22T19:42:52;17.70;;;9.48;;
66761;SDS011;53672;48.176;16.338;2023-06-22T19:47:53;13.82;;;8.60;;
66761;SDS011;53672;48.176;16.338;2023-06-22T19:52:58;15.10;;;8.23;;
66761;SDS011;53672;48.176;16.338;2023-06-22T19:57:58;16.30;;;8.90;;
66761;SDS011;53672;48.176;16.338;2023-06-22T20:02:59;15.83;;;8.33;;
66761;SDS011;53672;48.176;16.338;2023-06-22T20:08:03;14.65;;;8.02;;
66761;SDS011;53672;48.176;16.338;2023-06-22T20:13:08;15.60;;;8.38;;
66761;SDS011;53672;48.176;16.338;2023-06-22T20:18:10;16.38;;;9.13;;
66761;SDS011;53672;48.176;16.338;2023-06-22T20:23:17;21.57;;;9.80;;
66761;SDS011;53672;48.176;16.338;2023-06-22T20:28:22;16.48;;;9.32;;
66761;SDS011;53672;48.176;16.338;2023-06-22T20:33:25;15.68;;;9.48;;
66761;SDS011;53672;48.176;16.338;2023-06-22T20:38:27;16.02;;;9.25;;
66761;SDS011;53672;48.176;16.338;2023-06-22T20:43:27;19.47;;;9.90;;
66761;SDS011;53672;48.176;16.338;2023-06-22T20:48:28;19.20;;;10.90;;
66761;SDS011;53672;48.176;16.338;2023-06-22T20:53:30;18.57;;;10.27;;
66761;SDS011;53672;48.176;16.338;2023-06-22T20:58:30;15.45;;;10.13;;
66761;SDS011;53672;48.176;16.338;2023-06-22T21:03:30;17.70;;;9.60;;
66761;SDS011;53672;48.176;16.338;2023-06-22T21:08:32;18.37;;;9.83;;
66761;SDS011;53672;48.176;16.338;2023-06-22T21:13:33;19.40;;;10.60;;
66761;SDS011;53672;48.176;16.338;2023-06-22T21:18:33;17.93;;;10.80;;
66761;SDS011;53672;48.176;16.338;2023-06-22T21:23:35;21.43;;;11.20;;
66761;SDS011;53672;48.176;16.338;2023-06-22T21:28:36;22.92;;;11.30;;
66761;SDS011;53672;48.176;16.338;2023-06-22T21:33:36;18.83;;;11.50;;
66761;SDS011;53672;48.176;16.338;2023-06-22T21:38:38;20.23;;;11.98;;
66761;SDS011;53672;48.176;16.338;2023-06-22T21:43:38;20.55;;;12.43;;
66761;SDS011;53672;48.176;16.338;2023-06-22T21:48:39;22.37;;;12.60;;
66761;SDS011;53672;48.176;16.338;2023-06-22T21:53:41;21.50;;;12.40;;
66761;SDS011;53672;48.176;16.338;2023-06-22T21:58:41;23.80;;;13.05;;
66761;SDS011;53672;48.176;16.338;2023-06-22T22:03:41;20.53;;;13.00;;
66761;SDS011;53672;48.176;16.338;2023-06-22T22:08:43;21.33;;;13.13;;
66761;SDS011;53672;48.176;16.338;2023-06-22T22:13:44;23.75;;;13.77;;
66761;SDS011;53672;48.176;16.338;2023-06-22T22:18:44;26.70;;;14.70;;
66761;SDS011;53672;48.176;16.338;2023-06-22T22:23:46;22.20;;;13.53;;
66761;SDS011;53672;48.176;16.338;2023-06-22T22:28:47;23.52;;;13.88;;
66761;SDS011;53672;48.176;16.338;2023-06-22T22:33:47;24.52;;;13.65;;
66761;SDS011;53672;48.176;16.338;2023-06-22T22:38:49;22.20;;;13.03;;
66761;SDS011;53672;48.176;16.338;2023-06-22T22:43:49;20.53;;;13.00;;
66761;SDS011;53672;48.176;16.338;2023-06-22T22:48:50;23.60;;;13.17;;
66761;SDS011;53672;48.176;16.338;2023-06-22T22:53:52;21.60;;;13.35;;
66761;SDS011;53672;48.176;16.338;2023-06-22T22:58:52;20.00;;;12.60;;
66761;SDS011;53672;48.176;16.338;2023-06-22T23:03:53;19.80;;;13.23;;
66761;SDS011;53672;48.176;16.338;2023-06-22T23:08:54;22.73;;;12.43;;
66761;SDS011;53672;48.176;16.338;2023-06-22T23:13:55;18.02;;;12.50;;
66761;SDS011;53672;48.176;16.338;2023-06-22T23:18:55;20.93;;;12.17;;
66761;SDS011;53672;48.176;16.338;2023-06-22T23:23:57;24.03;;;12.20;;
66761;SDS011;53672;48.176;16.338;2023-06-22T23:28:58;18.83;;;12.30;;
66761;SDS011;53672;48.176;16.338;2023-06-22T23:33:58;19.50;;;12.07;;
66761;SDS011;53672;48.176;16.338;2023-06-22T23:39:00;22.70;;;12.83;;
66761;SDS011;53672;48.176;16.338;2023-06-22T23:44:00;19.58;;;12.00;;
66761;SDS011;53672;48.176;16.338;2023-06-22T23:49:01;18.17;;;12.27;;
66761;SDS011;53672;48.176;16.338;2023-06-22T23:54:03;20.60;;;12.43;;
66761;SDS011;53672;48.176;16.338;2023-06-22T23:59:03;24.65;;;12.05;;
